createdAt,value
2022-10-11T00:01:18.649Z,81.32
2022-10-11T00:03:45.146Z,80.80
2022-10-11T00:06:11.680Z,81.01
2022-10-11T00:08:38.270Z,81.12
2022-10-11T00:11:08.062Z,80.99
2022-10-11T00:13:34.927Z,80.92
2022-10-11T00:16:01.767Z,80.99
2022-10-11T00:18:28.393Z,80.77
2022-10-11T00:21:06.604Z,80.71
2022-10-11T00:23:33.482Z,80.88
2022-10-11T00:26:02.209Z,80.85
2022-10-11T00:28:29.365Z,80.80
2022-10-11T00:30:56.636Z,80.93
2022-10-11T00:33:23.094Z,81.21
2022-10-11T00:35:49.836Z,81.08
2022-10-11T00:38:16.542Z,81.15
2022-10-11T00:40:43.494Z,80.91
2022-10-11T00:43:23.612Z,81.60
2022-10-11T00:46:11.476Z,82.01
2022-10-11T00:49:21.463Z,81.53
2022-10-11T00:51:53.077Z,81.34
2022-10-11T00:54:23.804Z,81.40
2022-10-11T00:56:55.956Z,81.37
2022-10-11T00:59:26.341Z,81.42
2022-10-11T01:01:52.900Z,81.38
2022-10-11T01:04:19.389Z,81.31
2022-10-11T01:06:47.088Z,81.46
2022-10-11T01:09:14.292Z,81.54
2022-10-11T01:11:43.413Z,81.52
2022-10-11T01:14:37.667Z,81.22
2022-10-11T01:17:28.180Z,81.48
2022-10-11T01:20:19.421Z,81.73
2022-10-11T01:23:24.409Z,81.80
2022-10-11T01:26:26.008Z,82.02
2022-10-11T01:29:19.868Z,81.89
2022-10-11T01:31:53.847Z,81.09
2022-10-11T01:34:32.830Z,81.29
2022-10-11T01:37:08.684Z,82.15
2022-10-11T01:39:51.869Z,81.92
2022-10-11T01:42:19.656Z,81.62
2022-10-11T01:44:49.462Z,81.89
2022-10-11T01:47:21.009Z,82.18
2022-10-11T01:49:57.426Z,81.71
2022-10-11T01:52:26.701Z,81.51
2022-10-11T01:55:12.024Z,81.24
2022-10-11T01:57:55.363Z,81.82
2022-10-11T02:00:25.837Z,81.75
2022-10-11T02:02:58.397Z,81.83
2022-10-11T02:05:50.839Z,82.29
2022-10-11T02:09:07.186Z,81.89
2022-10-11T02:11:36.261Z,81.74
2022-10-11T02:14:10.896Z,81.70
2022-10-11T02:16:52.182Z,81.85
2022-10-11T02:19:22.320Z,81.77
2022-10-11T02:21:54.507Z,81.87
2022-10-11T02:24:37.569Z,81.88
2022-10-11T02:27:06.124Z,81.70
2022-10-11T02:29:35.759Z,81.97
2022-10-11T02:32:02.424Z,82.32
2022-10-11T02:34:35.984Z,82.09
2022-10-11T02:37:10.097Z,82.06
2022-10-11T02:39:47.294Z,82.26
2022-10-11T02:42:26.852Z,82.44
2022-10-11T02:45:30.402Z,82.53
2022-10-11T02:47:58.048Z,82.30
2022-10-11T02:50:24.528Z,82.48
2022-10-11T02:52:50.987Z,81.79
2022-10-11T02:55:17.481Z,82.46
2022-10-11T02:57:44.026Z,82.69
2022-10-11T03:00:11.395Z,82.68
2022-10-11T03:02:37.880Z,82.30
2022-10-11T03:05:04.710Z,82.61
2022-10-11T03:07:31.230Z,82.41
2022-10-11T03:09:57.771Z,82.58
2022-10-11T03:12:24.243Z,82.60
2022-10-11T03:14:50.691Z,82.29
2022-10-11T03:17:35.606Z,82.83
2022-10-11T03:20:04.475Z,83.05
2022-10-11T03:22:30.934Z,82.72
2022-10-11T03:25:02.521Z,82.25
2022-10-11T03:27:30.501Z,82.44
2022-10-11T03:29:57.681Z,82.67
2022-10-11T03:32:24.186Z,82.56
2022-10-11T03:34:50.656Z,82.90
2022-10-11T03:37:17.146Z,82.54
2022-10-11T03:39:45.419Z,82.71
2022-10-11T03:42:12.527Z,82.98
2022-10-11T03:44:39.014Z,82.87
2022-10-11T03:47:05.873Z,83.05
2022-10-11T03:49:32.355Z,83.30
2022-10-11T03:51:59.099Z,83.09
2022-10-11T03:54:25.840Z,82.99
2022-10-11T03:56:52.433Z,83.28
2022-10-11T03:59:18.902Z,83.20
2022-10-11T04:01:45.398Z,83.18
2022-10-11T04:04:11.983Z,83.25
2022-10-11T04:06:38.528Z,82.88
2022-10-11T04:09:05.048Z,83.01
2022-10-11T04:11:31.505Z,83.08
2022-10-11T04:13:58.217Z,83.32
2022-10-11T04:16:24.710Z,83.41
2022-10-11T04:18:51.492Z,83.57
2022-10-11T04:21:17.970Z,83.50
2022-10-11T04:23:44.515Z,83.42
2022-10-11T04:26:10.984Z,83.86
2022-10-11T04:28:37.489Z,83.67
2022-10-11T04:31:05.096Z,83.82
2022-10-11T04:33:31.556Z,83.28
2022-10-11T04:35:58.018Z,83.23
2022-10-11T04:38:24.495Z,84.14
2022-10-11T04:40:51.104Z,83.74
2022-10-11T04:43:18.552Z,83.70
2022-10-11T04:45:45.084Z,83.20
2022-10-11T04:48:11.524Z,83.67
2022-10-11T04:50:37.995Z,84.00
2022-10-11T04:53:07.479Z,83.61
2022-10-11T04:55:33.947Z,84.16
2022-10-11T04:58:02.017Z,83.56
2022-10-11T05:00:28.605Z,83.55
2022-10-11T05:02:55.178Z,83.75
2022-10-11T05:05:21.640Z,84.17
2022-10-11T05:07:48.092Z,84.12
2022-10-11T05:10:14.872Z,84.27
2022-10-11T05:12:41.344Z,84.28
2022-10-11T05:15:08.378Z,83.99
2022-10-11T05:17:35.033Z,84.04
2022-10-11T05:20:01.650Z,84.39
2022-10-11T05:22:28.169Z,84.39
2022-10-11T05:24:54.623Z,84.37
2022-10-11T05:27:21.131Z,84.31
2022-10-11T05:29:47.649Z,83.85
2022-10-11T05:32:14.116Z,83.84
2022-10-11T05:34:40.576Z,84.13
2022-10-11T05:37:07.214Z,83.79
2022-10-11T05:39:33.675Z,84.21
2022-10-11T05:42:00.157Z,83.83
2022-10-11T05:44:26.672Z,84.62
2022-10-11T05:46:53.143Z,84.19
2022-10-11T05:49:19.588Z,84.79
2022-10-11T05:51:46.041Z,84.53
2022-10-11T05:54:12.514Z,84.98
2022-10-11T05:56:38.972Z,84.42
2022-10-11T05:59:06.221Z,84.79
2022-10-11T06:01:32.769Z,84.86
2022-10-11T06:03:59.296Z,84.56
2022-10-11T06:06:25.946Z,84.63
2022-10-11T06:08:52.382Z,84.98
2022-10-11T06:11:27.279Z,84.76
2022-10-11T06:13:55.135Z,85.24
2022-10-11T06:16:21.743Z,85.15
2022-10-11T06:18:48.179Z,85.62
2022-10-11T06:21:15.461Z,85.68
2022-10-11T06:23:41.944Z,85.42
2022-10-11T06:26:09.329Z,86.04
2022-10-11T06:28:36.800Z,85.47
2022-10-11T06:31:05.379Z,86.37
2022-10-11T06:33:32.404Z,86.32
2022-10-11T06:36:01.071Z,86.43
2022-10-11T06:38:27.588Z,86.51
2022-10-11T06:40:54.326Z,86.76
2022-10-11T06:43:21.179Z,86.76
2022-10-11T06:45:47.674Z,87.09
2022-10-11T06:48:14.307Z,86.96
2022-10-11T06:50:59.226Z,87.19
2022-10-11T06:53:27.841Z,87.17
2022-10-11T06:55:54.322Z,87.67
2022-10-11T06:58:20.785Z,87.48
2022-10-11T07:00:47.350Z,87.60
2022-10-11T07:03:13.838Z,88.11
2022-10-11T07:05:40.356Z,88.23
2022-10-11T07:08:06.827Z,88.68
2022-10-11T07:10:35.493Z,88.55
2022-10-11T07:13:02.142Z,88.52
2022-10-11T07:15:28.588Z,88.86
2022-10-11T07:17:55.048Z,89.03
2022-10-11T07:20:21.524Z,88.69
2022-10-11T07:22:48.152Z,88.88
2022-10-11T07:25:14.632Z,89.00
2022-10-11T07:27:41.157Z,88.88
2022-10-11T07:30:08.033Z,88.56
2022-10-11T07:32:34.500Z,88.77
2022-10-11T07:35:01.160Z,91.14
2022-10-11T07:37:27.614Z,91.76
2022-10-11T07:39:54.099Z,90.47
2022-10-11T07:42:21.944Z,90.68
2022-10-11T07:44:48.507Z,90.03
2022-10-11T07:47:15.034Z,90.08
2022-10-11T07:49:41.492Z,91.41
2022-10-11T07:52:08.007Z,90.99
2022-10-11T07:54:34.542Z,92.00
2022-10-11T07:57:01.056Z,92.12
2022-10-11T07:59:27.550Z,92.70
2022-10-11T08:01:54.081Z,92.78
2022-10-11T08:04:21.408Z,92.83
2022-10-11T08:06:52.502Z,93.45
2022-10-11T08:09:19.732Z,92.56
2022-10-11T08:11:46.239Z,94.09
2022-10-11T08:14:12.691Z,95.06
2022-10-11T08:16:39.548Z,95.36
2022-10-11T08:19:06.496Z,96.45
2022-10-11T08:21:33.133Z,96.87
2022-10-11T08:24:02.119Z,96.77
2022-10-11T08:26:28.664Z,97.19
2022-10-11T08:28:55.276Z,97.14
2022-10-11T08:31:21.825Z,97.30
2022-10-11T08:33:48.597Z,97.49
2022-10-11T08:36:15.136Z,97.75
2022-10-11T08:38:42.224Z,97.86
2022-10-11T08:41:29.754Z,97.56
2022-10-11T08:44:14.545Z,96.99
2022-10-11T08:46:45.487Z,97.20
2022-10-11T08:49:14.804Z,96.75
2022-10-11T08:52:13.870Z,94.97
2022-10-11T08:54:49.441Z,94.88
2022-10-11T08:57:27.351Z,94.68
2022-10-11T08:59:56.412Z,94.30
2022-10-11T09:02:25.745Z,93.36
2022-10-11T09:04:54.432Z,92.71
2022-10-11T09:07:49.835Z,91.53
2022-10-11T09:10:22.256Z,92.15
2022-10-11T09:13:03.939Z,92.52
2022-10-11T09:15:49.260Z,92.09
2022-10-11T09:18:24.858Z,91.48
2022-10-11T09:21:09.058Z,90.45
2022-10-11T09:24:08.979Z,90.79
2022-10-11T09:26:47.625Z,90.86
2022-10-11T09:29:46.429Z,90.22
2022-10-11T09:32:16.358Z,90.17
2022-10-11T09:34:43.506Z,90.26
2022-10-11T09:37:32.654Z,89.72
2022-10-11T09:40:35.964Z,90.12
2022-10-11T09:43:02.416Z,90.38
2022-10-11T09:45:28.912Z,90.36
2022-10-11T09:47:59.642Z,89.93
2022-10-11T09:50:29.572Z,89.32
2022-10-11T09:53:03.311Z,88.71
2022-10-11T09:55:36.112Z,88.01
2022-10-11T09:58:04.830Z,88.22
2022-10-11T10:00:33.803Z,87.83
2022-10-11T10:03:04.554Z,86.39
2022-10-11T10:05:33.728Z,86.21
2022-10-11T10:08:04.994Z,85.11
2022-10-11T10:10:34.827Z,84.29
2022-10-11T10:13:04.414Z,84.29
2022-10-11T10:15:34.643Z,82.59
2022-10-11T10:18:01.991Z,81.56
2022-10-11T10:20:32.320Z,80.60
2022-10-11T10:23:21.567Z,74.32
2022-10-11T10:25:51.124Z,75.49
2022-10-11T10:28:27.084Z,75.30
2022-10-11T10:30:55.965Z,76.15
2022-10-11T10:33:25.523Z,76.19
2022-10-11T10:36:08.504Z,74.23
2022-10-11T10:38:52.208Z,73.61
2022-10-11T10:41:19.445Z,72.39
2022-10-11T10:43:56.189Z,71.54
2022-10-11T10:46:22.612Z,71.57
2022-10-11T10:49:48.493Z,72.12
2022-10-11T10:52:40.894Z,73.08
2022-10-11T10:55:34.949Z,71.14
2022-10-11T10:58:41.951Z,71.71
2022-10-11T11:01:18.836Z,71.81
2022-10-11T11:04:10.008Z,72.45
2022-10-11T11:06:55.373Z,73.29
2022-10-11T11:09:37.790Z,74.26
2022-10-11T11:12:36.149Z,73.91
2022-10-11T11:15:10.700Z,70.80
2022-10-11T11:18:01.716Z,71.26
2022-10-11T11:20:52.033Z,70.63
2022-10-11T11:23:21.831Z,71.24
2022-10-11T11:26:20.179Z,71.08
2022-10-11T11:29:02.311Z,70.07
2022-10-11T11:31:47.580Z,69.56
2022-10-11T11:34:14.054Z,69.48
2022-10-11T11:36:44.804Z,66.81
2022-10-11T11:39:23.114Z,67.17
2022-10-11T11:41:56.957Z,68.29
2022-10-11T11:44:47.248Z,69.41
2022-10-11T11:47:33.594Z,68.20
2022-10-11T11:50:05.643Z,66.82
2022-10-11T11:52:40.831Z,68.16
2022-10-11T11:55:20.948Z,67.89
2022-10-11T11:58:06.971Z,68.13
2022-10-11T12:00:49.669Z,64.71
2022-10-11T12:03:28.492Z,66.58
2022-10-11T12:06:13.328Z,66.32
2022-10-11T12:08:43.152Z,66.69
2022-10-11T12:11:21.659Z,65.91
2022-10-11T12:13:51.967Z,64.18
2022-10-11T12:16:20.160Z,62.40
2022-10-11T12:19:01.482Z,63.76
2022-10-11T12:21:40.454Z,62.89
2022-10-11T12:24:12.811Z,63.18
2022-10-11T12:26:54.027Z,62.29
2022-10-11T12:29:44.116Z,62.16
2022-10-11T12:32:36.869Z,63.07
2022-10-11T12:35:31.490Z,62.30
2022-10-11T12:38:23.766Z,60.94
2022-10-11T12:41:14.467Z,61.22
2022-10-11T12:44:27.309Z,61.88
2022-10-11T12:46:53.709Z,59.88
2022-10-11T12:49:41.871Z,59.66
2022-10-11T12:52:17.533Z,59.85
2022-10-11T12:54:43.949Z,60.41
2022-10-11T12:57:45.925Z,59.16
2022-10-11T13:00:20.624Z,59.96
2022-10-11T13:02:48.404Z,61.40
2022-10-11T13:05:29.680Z,61.64
2022-10-11T13:08:02.310Z,60.79
2022-10-11T13:10:45.181Z,60.21
2022-10-11T13:13:24.481Z,58.94
2022-10-11T13:15:54.173Z,58.82
2022-10-11T13:18:23.821Z,60.13
2022-10-11T13:20:50.456Z,58.67
2022-10-11T13:23:27.236Z,55.91
2022-10-11T13:25:55.294Z,55.22
2022-10-11T13:28:23.432Z,56.45
2022-10-11T13:30:54.512Z,57.93
2022-10-11T13:33:33.135Z,58.22
2022-10-11T13:36:01.693Z,57.99
2022-10-11T13:38:33.373Z,57.58
2022-10-11T13:41:04.223Z,56.93
2022-10-11T13:43:31.463Z,55.63
2022-10-11T13:46:00.327Z,54.69
2022-10-11T13:48:31.687Z,54.45
2022-10-11T13:51:05.966Z,56.77
2022-10-11T13:53:33.578Z,56.50
2022-10-11T13:56:04.256Z,54.90
2022-10-11T13:58:38.631Z,56.76
2022-10-11T14:01:16.614Z,55.89
2022-10-11T14:03:46.098Z,56.82
2022-10-11T14:06:13.018Z,53.92
2022-10-11T14:08:55.158Z,54.69
2022-10-11T14:11:35.532Z,55.36
2022-10-11T14:14:27.987Z,56.65
2022-10-11T14:17:04.340Z,54.27
2022-10-11T14:19:31.061Z,54.73
2022-10-11T14:21:57.646Z,55.75
2022-10-11T14:24:24.167Z,52.94
2022-10-11T14:26:53.898Z,53.09
2022-10-11T14:29:26.619Z,53.47
2022-10-11T14:32:04.703Z,52.62
2022-10-11T14:34:31.539Z,53.25
2022-10-11T14:36:58.283Z,53.15
2022-10-11T14:39:27.810Z,53.32
2022-10-11T14:41:54.675Z,54.26
2022-10-11T14:44:22.093Z,54.01
2022-10-11T14:46:50.647Z,53.92
2022-10-11T14:49:23.042Z,55.27
2022-10-11T14:51:50.660Z,55.41
2022-10-11T14:54:20.629Z,55.13
2022-10-11T14:56:47.087Z,56.18
2022-10-11T14:59:19.456Z,55.92
2022-10-11T15:01:51.490Z,57.88
2022-10-11T15:04:18.714Z,59.23
2022-10-11T15:06:45.239Z,56.66
2022-10-11T15:09:11.856Z,57.95
2022-10-11T15:11:38.823Z,57.94
2022-10-11T15:14:06.459Z,59.57
2022-10-11T15:16:33.508Z,57.63
2022-10-11T15:19:00.034Z,59.04
2022-10-11T15:21:28.205Z,57.51
2022-10-11T15:23:55.960Z,55.89
2022-10-11T15:26:28.366Z,57.44
2022-10-11T15:28:57.131Z,54.91
2022-10-11T15:31:23.914Z,51.19
2022-10-11T15:33:50.570Z,52.77
2022-10-11T15:36:22.234Z,51.62
2022-10-11T15:38:48.755Z,56.07
2022-10-11T15:41:17.107Z,52.90
2022-10-11T15:43:44.434Z,51.61
2022-10-11T15:46:18.642Z,51.88
2022-10-11T15:48:46.293Z,51.08
2022-10-11T15:51:13.004Z,51.38
2022-10-11T15:53:39.528Z,52.24
2022-10-11T15:56:09.688Z,52.60
2022-10-11T15:58:39.283Z,52.29
2022-10-11T16:01:09.657Z,53.39
2022-10-11T16:03:36.366Z,54.36
2022-10-11T16:06:05.488Z,55.27
2022-10-11T16:08:33.292Z,53.43
2022-10-11T16:10:59.828Z,55.35
2022-10-11T16:13:26.306Z,56.39
2022-10-11T16:15:52.790Z,57.32
2022-10-11T16:18:20.879Z,57.58
2022-10-11T16:20:48.900Z,59.26
2022-10-11T16:23:15.626Z,59.10
2022-10-11T16:25:42.367Z,60.22
2022-10-11T16:28:10.116Z,60.59
2022-10-11T16:30:43.713Z,60.67
2022-10-11T16:33:10.259Z,61.57
2022-10-11T16:35:41.441Z,62.77
2022-10-11T16:38:08.023Z,63.01
2022-10-11T16:40:36.032Z,63.30
2022-10-11T16:43:07.417Z,64.47
2022-10-11T16:45:35.125Z,63.96
2022-10-11T16:48:01.926Z,64.69
2022-10-11T16:50:29.102Z,64.93
2022-10-11T16:52:56.004Z,65.62
2022-10-11T16:55:22.967Z,65.69
2022-10-11T16:57:49.429Z,65.58
2022-10-11T17:00:16.723Z,66.42
2022-10-11T17:02:43.323Z,66.05
2022-10-11T17:05:09.791Z,66.78
2022-10-11T17:07:36.359Z,66.74
2022-10-11T17:10:02.953Z,67.02
2022-10-11T17:12:29.519Z,67.40
2022-10-11T17:14:56.353Z,67.67
2022-10-11T17:17:22.883Z,67.78
2022-10-11T17:19:49.518Z,67.87
2022-10-11T17:22:18.709Z,68.38
2022-10-11T17:24:45.935Z,68.38
2022-10-11T17:27:12.648Z,68.25
2022-10-11T17:29:39.160Z,68.70
2022-10-11T17:32:06.041Z,68.29
2022-10-11T17:34:33.125Z,68.50
2022-10-11T17:36:59.585Z,68.77
2022-10-11T17:39:26.083Z,68.62
2022-10-11T17:41:52.566Z,69.32
2022-10-11T17:44:19.649Z,69.40
2022-10-11T17:46:46.591Z,69.66
2022-10-11T17:49:13.870Z,69.31
2022-10-11T17:51:41.321Z,69.89
2022-10-11T17:54:12.537Z,69.56
2022-10-11T17:56:40.700Z,69.77
2022-10-11T17:59:08.274Z,69.73
2022-10-11T18:01:34.871Z,69.66
2022-10-11T18:04:04.939Z,70.13
2022-10-11T18:06:38.031Z,70.07
2022-10-11T18:09:04.792Z,69.98
2022-10-11T18:11:31.731Z,70.24
2022-10-11T18:13:58.226Z,70.20
2022-10-11T18:16:27.292Z,70.45
2022-10-11T18:18:57.169Z,70.36
2022-10-11T18:21:33.425Z,70.61
2022-10-11T18:24:02.331Z,70.32
2022-10-11T18:26:30.719Z,70.48
2022-10-11T18:28:58.630Z,70.76
2022-10-11T18:31:28.328Z,70.62
2022-10-11T18:33:55.561Z,70.66
2022-10-11T18:36:24.920Z,71.02
2022-10-11T18:38:57.117Z,71.22
2022-10-11T18:41:30.435Z,71.16
2022-10-11T18:43:59.483Z,71.07
2022-10-11T18:46:26.774Z,71.18
2022-10-11T18:48:55.355Z,71.38
2022-10-11T18:51:27.656Z,71.42
2022-10-11T18:53:54.899Z,71.23
2022-10-11T18:56:26.723Z,71.48
2022-10-11T18:58:54.381Z,70.43
2022-10-11T19:01:27.093Z,71.47
2022-10-11T19:03:56.527Z,71.25
2022-10-11T19:06:26.490Z,71.61
2022-10-11T19:08:55.631Z,71.63
2022-10-11T19:11:23.761Z,71.63
2022-10-11T19:13:56.264Z,71.79
2022-10-11T19:16:23.391Z,71.49
2022-10-11T19:18:50.479Z,71.48
2022-10-11T19:21:17.149Z,71.85
2022-10-11T19:23:45.657Z,71.89
2022-10-11T19:26:26.448Z,72.33
2022-10-11T19:29:01.916Z,72.02
2022-10-11T19:31:28.932Z,71.83
2022-10-11T19:33:57.345Z,72.46
2022-10-11T19:36:24.162Z,72.15
2022-10-11T19:38:51.336Z,72.49
2022-10-11T19:41:19.586Z,72.41
2022-10-11T19:43:46.832Z,72.24
2022-10-11T19:46:20.134Z,72.63
2022-10-11T19:48:54.345Z,72.54
2022-10-11T19:51:25.873Z,72.62
2022-10-11T19:53:59.956Z,72.65
2022-10-11T19:56:28.595Z,72.59
2022-10-11T19:58:55.427Z,72.85
2022-10-11T20:01:23.981Z,73.15
2022-10-11T20:03:53.833Z,72.99
2022-10-11T20:06:21.954Z,73.08
2022-10-11T20:08:59.822Z,72.98
2022-10-11T20:11:35.932Z,72.88
2022-10-11T20:14:02.391Z,73.27
2022-10-11T20:16:28.999Z,73.50
2022-10-11T20:18:58.563Z,73.50
2022-10-11T20:21:26.104Z,73.41
2022-10-11T20:23:52.942Z,73.26
2022-10-11T20:26:22.255Z,73.48
2022-10-11T20:28:55.702Z,73.72
2022-10-11T20:31:28.200Z,73.44
2022-10-11T20:33:56.838Z,73.54
2022-10-11T20:36:26.677Z,73.59
2022-10-11T20:38:53.205Z,73.67
2022-10-11T20:41:22.401Z,74.13
2022-10-11T20:43:54.071Z,73.67
2022-10-11T20:46:23.004Z,73.76
2022-10-11T20:48:52.097Z,74.09
2022-10-11T20:51:18.707Z,74.04
2022-10-11T20:53:45.672Z,73.96
2022-10-11T20:56:14.862Z,73.89
2022-10-11T20:58:42.168Z,73.75
2022-10-11T21:01:14.121Z,73.99
2022-10-11T21:03:40.953Z,73.81
2022-10-11T21:06:07.900Z,73.87
2022-10-11T21:08:35.596Z,74.09
2022-10-11T21:11:03.787Z,74.00
2022-10-11T21:13:30.645Z,73.99
2022-10-11T21:16:04.378Z,73.98
2022-10-11T21:18:31.112Z,73.95
2022-10-11T21:20:57.595Z,74.10
2022-10-11T21:23:24.087Z,74.06
2022-10-11T21:25:50.617Z,74.08
2022-10-11T21:28:18.211Z,74.32
2022-10-11T21:30:44.683Z,74.36
2022-10-11T21:33:11.197Z,74.41
2022-10-11T21:35:40.140Z,74.60
2022-10-11T21:38:06.656Z,74.64
2022-10-11T21:40:33.134Z,74.56
2022-10-11T21:42:59.617Z,74.45
2022-10-11T21:45:26.102Z,74.60
2022-10-11T21:47:52.847Z,74.35
2022-10-11T21:50:19.314Z,74.16
2022-10-11T21:52:45.784Z,74.24
2022-10-11T21:55:12.699Z,74.67
2022-10-11T21:57:42.633Z,74.28
2022-10-11T22:00:09.795Z,74.44
2022-10-11T22:02:39.841Z,74.86
2022-10-11T22:05:06.365Z,74.51
2022-10-11T22:07:32.825Z,74.48
2022-10-11T22:09:59.280Z,74.74
2022-10-11T22:12:25.747Z,75.18
2022-10-11T22:14:52.282Z,74.84
2022-10-11T22:17:18.761Z,75.04
2022-10-11T22:19:45.266Z,75.19
2022-10-11T22:22:12.039Z,74.85
2022-10-11T22:24:38.507Z,75.46
2022-10-11T22:27:05.005Z,74.89
2022-10-11T22:29:34.184Z,74.69
2022-10-11T22:32:01.005Z,75.05
2022-10-11T22:34:31.115Z,75.38
2022-10-11T22:36:57.587Z,75.42
2022-10-11T22:39:24.062Z,75.45
2022-10-11T22:41:50.562Z,75.44
2022-10-11T22:44:17.015Z,75.53
2022-10-11T22:46:43.484Z,75.74
2022-10-11T22:49:09.962Z,75.58
2022-10-11T22:51:36.452Z,75.31
2022-10-11T22:54:02.996Z,75.67
2022-10-11T22:56:29.623Z,75.84
2022-10-11T22:58:56.148Z,75.90
2022-10-11T23:01:22.617Z,76.07
2022-10-11T23:03:50.585Z,75.96
2022-10-11T23:06:17.862Z,75.98
2022-10-11T23:08:44.395Z,76.17
2022-10-11T23:11:11.309Z,76.15
2022-10-11T23:13:37.829Z,76.36
2022-10-11T23:16:09.644Z,76.09
2022-10-11T23:18:36.323Z,75.49
2022-10-11T23:21:04.235Z,75.59
2022-10-11T23:23:30.725Z,75.80
2022-10-11T23:26:12.244Z,76.46
2022-10-11T23:28:39.095Z,76.26
2022-10-11T23:31:10.644Z,76.26
2022-10-11T23:33:37.107Z,76.22
2022-10-11T23:36:03.780Z,76.38
2022-10-11T23:38:30.339Z,76.01
2022-10-11T23:40:56.837Z,76.63
2022-10-11T23:43:23.737Z,76.61
2022-10-11T23:45:50.222Z,76.93
2022-10-11T23:48:16.708Z,77.19
2022-10-11T23:50:43.258Z,77.07
2022-10-11T23:53:10.629Z,76.98
2022-10-11T23:55:37.092Z,77.02
2022-10-11T23:58:03.545Z,77.01
